Montrose, CO

5:42 AM MDT on August 20, 2014 (GMT -0600)
Delta | Change Station
CLOSE
Current Station
Airport
Location: Delta,
Elevation: 5194 ft
Nearby Weather Stations

Elev 5194 ft 38.79 °N, 108.07 °W | Updated 7 minutes ago

Rain
Rain
64 °F
Feels Like 64 °F
N
5
Wind Variable Wind from NE

Today
High -- | Low -- °F
--% Chance of Precip.
Yesterday
High -- | Low -- °F
Precip. -- in
6:30 AM 7:58 PM
Waning Crescent, 22% visible
Pressure 30.04 in
Visibility 10.0 miles
Clouds Scattered Clouds 4800 ft
Mostly Cloudy 6500 ft
Mostly Cloudy 11000 ft
Dew Point 59 °F
Humidity 85%
Rainfall 0.00 in
Snow Depth Not available.
UV 0 out of 12
Pollen 5.60 out of 12
Air Quality Not available.
Flu Activity Not available.
METAR KAJZ 201135Z AUTO 04004KT 10SM RA SCT048 BKN065 BKN110 18/15 A3004 RMK AO2 T01770151

More Conditions Fewer Conditions

Pressure 30.04 in
Visibility 10.0 miles
Clouds Scattered Clouds 4800 ft
Mostly Cloudy 6500 ft
Mostly Cloudy 11000 ft
Dew Point 59 °F
Humidity 85%
Rainfall 0.00 in
Snow Depth Not available.
UV 0 out of 12
Pollen 5.60 out of 12
Air Quality Not available.
Flu Activity Not available.
METAR KAJZ 201135Z AUTO 04004KT 10SM RA SCT048 BKN065 BKN110 18/15 A3004 RMK AO2 T01770151

More Conditions Fewer Conditions

10-Day Weather Forecast

Almanac

Astronomy

Aug. 20, 2014 Rise Set
Actual Time 6:30 AM MDT 7:58 PM MDT
Civil Twilight 6:02 AM MDT 8:26 PM MDT
Nautical Twilight 5:28 AM MDT 8:59 PM MDT
Astronomical Twilight 4:53 AM MDT 9:34 PM MDT
Moon 2:14 AM MDT 4:44 PM MDT
Length of Visible Light 14h 23m
Length of Day
13h 28m
Tomorrow will be 2m 16s shorter.
Waning Crescent, 22% of the Moon is Illuminated
Today
Waning Crescent
Aug 25
New
Sep 2
First Quarter
Sep 8
Full
Sep 15
Last Quarter

Today's Extremes

State Highs State Lows

Community

WunderPhotos

Upload Photos

1,745,611 photos uploaded!

Nearby

Snow Depth

Station Depth Elevation
Columbine Pass 0 in 9400 ft
Idarado 0 in 9800 ft
Red Mountain Pass 0 in 11150 ft
Lone Cone 1 in 9600 ft
Mineral Creek 0 in 10040 ft

Earthquake Activity

City Distance Mag. Time & Date
No recent earthquake activity has been reported nearby.
Minimum magnitude displayed is 2.5.

Coastal Water Temperatures

Place Temperature
No Stations Reporting

Nearby Weather Stations